sensor_id;sensor_type;location;lat;lon;timestamp;P1;durP1;ratioP1;P2;durP2;ratioP2
25913;SDS011;13718;50.922;5.346;2023-08-07T00:00:36;13.25;;;3.40;;
25913;SDS011;13718;50.922;5.346;2023-08-07T00:03:01;20.08;;;3.40;;
25913;SDS011;13718;50.922;5.346;2023-08-07T00:05:27;12.75;;;3.80;;
25913;SDS011;13718;50.922;5.346;2023-08-07T00:07:53;20.25;;;3.13;;
25913;SDS011;13718;50.922;5.346;2023-08-07T00:10:19;13.63;;;3.22;;
25913;SDS011;13718;50.922;5.346;2023-08-07T00:12:44;16.90;;;3.03;;
25913;SDS011;13718;50.922;5.346;2023-08-07T00:15:10;16.52;;;3.75;;
25913;SDS011;13718;50.922;5.346;2023-08-07T00:17:36;20.17;;;3.60;;
25913;SDS011;13718;50.922;5.346;2023-08-07T00:20:02;14.50;;;3.15;;
25913;SDS011;13718;50.922;5.346;2023-08-07T00:22:28;13.80;;;3.50;;
25913;SDS011;13718;50.922;5.346;2023-08-07T00:24:54;16.60;;;3.72;;
25913;SDS011;13718;50.922;5.346;2023-08-07T00:27:19;16.23;;;3.10;;
25913;SDS011;13718;50.922;5.346;2023-08-07T00:29:45;19.70;;;3.70;;
25913;SDS011;13718;50.922;5.346;2023-08-07T00:32:10;16.42;;;3.20;;
25913;SDS011;13718;50.922;5.346;2023-08-07T00:34:36;18.55;;;3.45;;
25913;SDS011;13718;50.922;5.346;2023-08-07T00:37:01;15.77;;;3.55;;
25913;SDS011;13718;50.922;5.346;2023-08-07T00:39:27;18.08;;;3.35;;
25913;SDS011;13718;50.922;5.346;2023-08-07T00:41:52;15.30;;;3.10;;
25913;SDS011;13718;50.922;5.346;2023-08-07T00:44:18;15.50;;;3.65;;
25913;SDS011;13718;50.922;5.346;2023-08-07T00:46:44;18.42;;;3.35;;
25913;SDS011;13718;50.922;5.346;2023-08-07T00:49:11;15.05;;;3.38;;
25913;SDS011;13718;50.922;5.346;2023-08-07T00:51:37;19.73;;;3.40;;
25913;SDS011;13718;50.922;5.346;2023-08-07T00:54:04;19.83;;;3.30;;
25913;SDS011;13718;50.922;5.346;2023-08-07T00:56:31;16.27;;;3.65;;
25913;SDS011;13718;50.922;5.346;2023-08-07T00:58:57;17.20;;;3.30;;
25913;SDS011;13718;50.922;5.346;2023-08-07T01:01:24;15.27;;;3.40;;
25913;SDS011;13718;50.922;5.346;2023-08-07T01:03:50;14.65;;;3.28;;
25913;SDS011;13718;50.922;5.346;2023-08-07T01:06:16;16.35;;;3.33;;
25913;SDS011;13718;50.922;5.346;2023-08-07T01:08:42;20.48;;;2.92;;
25913;SDS011;13718;50.922;5.346;2023-08-07T01:16:48;15.63;;;3.72;;
25913;SDS011;13718;50.922;5.346;2023-08-07T01:19:25;15.10;;;3.53;;
25913;SDS011;13718;50.922;5.346;2023-08-07T01:24:37;18.38;;;3.25;;
25913;SDS011;13718;50.922;5.346;2023-08-07T01:32:26;13.35;;;3.00;;
25913;SDS011;13718;50.922;5.346;2023-08-07T01:34:59;14.20;;;3.08;;
25913;SDS011;13718;50.922;5.346;2023-08-07T01:37:27;18.92;;;3.25;;
25913;SDS011;13718;50.922;5.346;2023-08-07T01:39:55;13.93;;;3.00;;
25913;SDS011;13718;50.922;5.346;2023-08-07T01:42:23;15.55;;;4.10;;
25913;SDS011;13718;50.922;5.346;2023-08-07T01:44:49;18.73;;;3.53;;
25913;SDS011;13718;50.922;5.346;2023-08-07T01:47:15;13.98;;;3.13;;
25913;SDS011;13718;50.922;5.346;2023-08-07T01:49:40;12.52;;;3.30;;
25913;SDS011;13718;50.922;5.346;2023-08-07T01:52:06;16.13;;;3.60;;
25913;SDS011;13718;50.922;5.346;2023-08-07T01:54:33;18.27;;;3.50;;
25913;SDS011;13718;50.922;5.346;2023-08-07T01:56:58;14.60;;;3.58;;
25913;SDS011;13718;50.922;5.346;2023-08-07T01:59:24;12.68;;;2.85;;
25913;SDS011;13718;50.922;5.346;2023-08-07T02:01:49;15.68;;;3.20;;
25913;SDS011;13718;50.922;5.346;2023-08-07T02:04:15;16.95;;;3.35;;
25913;SDS011;13718;50.922;5.346;2023-08-07T02:06:40;18.73;;;3.22;;
25913;SDS011;13718;50.922;5.346;2023-08-07T02:09:06;13.38;;;3.08;;
25913;SDS011;13718;50.922;5.346;2023-08-07T02:11:31;16.15;;;3.10;;
25913;SDS011;13718;50.922;5.346;2023-08-07T02:13:57;14.10;;;3.15;;
25913;SDS011;13718;50.922;5.346;2023-08-07T02:16:22;14.50;;;3.13;;
25913;SDS011;13718;50.922;5.346;2023-08-07T02:18:48;16.27;;;3.35;;
25913;SDS011;13718;50.922;5.346;2023-08-07T02:21:13;13.95;;;3.63;;
25913;SDS011;13718;50.922;5.346;2023-08-07T02:23:39;9.32;;;2.92;;
25913;SDS011;13718;50.922;5.346;2023-08-07T02:26:04;14.18;;;3.17;;
25913;SDS011;13718;50.922;5.346;2023-08-07T02:28:30;17.02;;;3.35;;
25913;SDS011;13718;50.922;5.346;2023-08-07T02:30:55;15.63;;;3.80;;
25913;SDS011;13718;50.922;5.346;2023-08-07T02:33:21;8.98;;;2.75;;
25913;SDS011;13718;50.922;5.346;2023-08-07T02:35:46;14.82;;;3.80;;
25913;SDS011;13718;50.922;5.346;2023-08-07T02:38:12;14.30;;;3.47;;
25913;SDS011;13718;50.922;5.346;2023-08-07T02:40:37;15.38;;;3.20;;
25913;SDS011;13718;50.922;5.346;2023-08-07T02:43:03;17.48;;;3.40;;
25913;SDS011;13718;50.922;5.346;2023-08-07T02:45:28;18.77;;;3.67;;
25913;SDS011;13718;50.922;5.346;2023-08-07T02:47:54;13.77;;;3.00;;
25913;SDS011;13718;50.922;5.346;2023-08-07T02:50:19;14.90;;;2.95;;
25913;SDS011;13718;50.922;5.346;2023-08-07T02:52:45;16.35;;;3.53;;
25913;SDS011;13718;50.922;5.346;2023-08-07T02:55:10;13.35;;;3.28;;
25913;SDS011;13718;50.922;5.346;2023-08-07T02:57:36;16.08;;;2.95;;
25913;SDS011;13718;50.922;5.346;2023-08-07T03:00:01;13.32;;;2.50;;
25913;SDS011;13718;50.922;5.346;2023-08-07T03:02:27;12.15;;;3.08;;
25913;SDS011;13718;50.922;5.346;2023-08-07T03:04:53;9.15;;;2.97;;
25913;SDS011;13718;50.922;5.346;2023-08-07T03:07:19;17.05;;;3.00;;
25913;SDS011;13718;50.922;5.346;2023-08-07T03:09:45;11.13;;;2.40;;
25913;SDS011;13718;50.922;5.346;2023-08-07T03:12:12;10.00;;;2.47;;
25913;SDS011;13718;50.922;5.346;2023-08-07T03:14:37;11.38;;;3.00;;
25913;SDS011;13718;50.922;5.346;2023-08-07T03:17:03;12.40;;;3.03;;
25913;SDS011;13718;50.922;5.346;2023-08-07T03:19:29;13.63;;;3.00;;
25913;SDS011;13718;50.922;5.346;2023-08-07T03:21:54;14.02;;;3.38;;
25913;SDS011;13718;50.922;5.346;2023-08-07T03:24:20;12.93;;;2.72;;
25913;SDS011;13718;50.922;5.346;2023-08-07T03:26:45;10.75;;;2.72;;
25913;SDS011;13718;50.922;5.346;2023-08-07T03:29:12;12.80;;;2.92;;
25913;SDS011;13718;50.922;5.346;2023-08-07T03:31:38;12.98;;;3.15;;
25913;SDS011;13718;50.922;5.346;2023-08-07T03:34:03;17.98;;;2.88;;
25913;SDS011;13718;50.922;5.346;2023-08-07T03:36:29;15.90;;;2.92;;
25913;SDS011;13718;50.922;5.346;2023-08-07T03:38:54;8.32;;;2.60;;
25913;SDS011;13718;50.922;5.346;2023-08-07T03:41:20;10.38;;;3.03;;
25913;SDS011;13718;50.922;5.346;2023-08-07T03:43:45;11.48;;;2.88;;
25913;SDS011;13718;50.922;5.346;2023-08-07T03:46:11;9.15;;;2.60;;
25913;SDS011;13718;50.922;5.346;2023-08-07T03:48:37;10.82;;;2.78;;
25913;SDS011;13718;50.922;5.346;2023-08-07T03:51:03;10.05;;;3.10;;
25913;SDS011;13718;50.922;5.346;2023-08-07T03:53:30;10.60;;;2.70;;
25913;SDS011;13718;50.922;5.346;2023-08-07T03:55:55;11.00;;;2.70;;
25913;SDS011;13718;50.922;5.346;2023-08-07T03:58:21;16.33;;;2.83;;
25913;SDS011;13718;50.922;5.346;2023-08-07T04:00:46;14.10;;;3.10;;
25913;SDS011;13718;50.922;5.346;2023-08-07T04:03:12;12.75;;;3.17;;
25913;SDS011;13718;50.922;5.346;2023-08-07T04:05:37;11.38;;;3.03;;
25913;SDS011;13718;50.922;5.346;2023-08-07T04:08:03;8.85;;;2.97;;
25913;SDS011;13718;50.922;5.346;2023-08-07T04:10:29;9.77;;;2.75;;
25913;SDS011;13718;50.922;5.346;2023-08-07T04:12:54;14.70;;;2.92;;
25913;SDS011;13718;50.922;5.346;2023-08-07T04:15:20;12.35;;;3.03;;
25913;SDS011;13718;50.922;5.346;2023-08-07T04:17:45;12.73;;;3.05;;
25913;SDS011;13718;50.922;5.346;2023-08-07T04:20:11;11.43;;;2.60;;
25913;SDS011;13718;50.922;5.346;2023-08-07T04:22:37;11.65;;;3.55;;
25913;SDS011;13718;50.922;5.346;2023-08-07T04:25:02;12.05;;;2.70;;
25913;SDS011;13718;50.922;5.346;2023-08-07T04:27:28;12.50;;;3.20;;
25913;SDS011;13718;50.922;5.346;2023-08-07T04:29:53;12.18;;;2.90;;
25913;SDS011;13718;50.922;5.346;2023-08-07T04:32:19;10.20;;;2.60;;
25913;SDS011;13718;50.922;5.346;2023-08-07T04:34:45;16.40;;;3.03;;
25913;SDS011;13718;50.922;5.346;2023-08-07T04:37:10;12.52;;;2.45;;
25913;SDS011;13718;50.922;5.346;2023-08-07T04:39:36;14.57;;;3.42;;
25913;SDS011;13718;50.922;5.346;2023-08-07T04:42:01;11.30;;;2.83;;
25913;SDS011;13718;50.922;5.346;2023-08-07T04:44:27;14.93;;;3.25;;
25913;SDS011;13718;50.922;5.346;2023-08-07T04:46:53;8.75;;;2.75;;
25913;SDS011;13718;50.922;5.346;2023-08-07T04:49:18;8.93;;;2.60;;
25913;SDS011;13718;50.922;5.346;2023-08-07T04:51:44;12.57;;;2.72;;
25913;SDS011;13718;50.922;5.346;2023-08-07T04:54:09;9.93;;;2.97;;
25913;SDS011;13718;50.922;5.346;2023-08-07T04:56:35;16.67;;;3.90;;
25913;SDS011;13718;50.922;5.346;2023-08-07T04:59:00;15.55;;;2.97;;
25913;SDS011;13718;50.922;5.346;2023-08-07T05:01:26;15.70;;;3.33;;
25913;SDS011;13718;50.922;5.346;2023-08-07T05:03:52;10.65;;;2.80;;
25913;SDS011;13718;50.922;5.346;2023-08-07T05:06:17;10.52;;;2.60;;
25913;SDS011;13718;50.922;5.346;2023-08-07T05:08:44;13.07;;;2.78;;
25913;SDS011;13718;50.922;5.346;2023-08-07T05:11:09;8.63;;;2.90;;
25913;SDS011;13718;50.922;5.346;2023-08-07T05:13:35;11.50;;;2.72;;
25913;SDS011;13718;50.922;5.346;2023-08-07T05:16:00;8.15;;;3.08;;
25913;SDS011;13718;50.922;5.346;2023-08-07T05:18:26;10.38;;;3.10;;
25913;SDS011;13718;50.922;5.346;2023-08-07T05:20:51;11.38;;;3.55;;
25913;SDS011;13718;50.922;5.346;2023-08-07T05:23:17;14.38;;;2.88;;
25913;SDS011;13718;50.922;5.346;2023-08-07T05:25:45;14.95;;;3.20;;
25913;SDS011;13718;50.922;5.346;2023-08-07T05:28:12;8.88;;;3.15;;
25913;SDS011;13718;50.922;5.346;2023-08-07T05:30:37;7.38;;;2.63;;
25913;SDS011;13718;50.922;5.346;2023-08-07T05:33:03;13.38;;;3.17;;
25913;SDS011;13718;50.922;5.346;2023-08-07T05:35:28;9.45;;;2.45;;
25913;SDS011;13718;50.922;5.346;2023-08-07T05:37:54;9.68;;;2.47;;
25913;SDS011;13718;50.922;5.346;2023-08-07T05:40:19;10.82;;;2.20;;
25913;SDS011;13718;50.922;5.346;2023-08-07T05:42:45;12.45;;;2.30;;
25913;SDS011;13718;50.922;5.346;2023-08-07T05:45:10;10.70;;;2.63;;
25913;SDS011;13718;50.922;5.346;2023-08-07T05:47:36;10.70;;;2.90;;
25913;SDS011;13718;50.922;5.346;2023-08-07T05:50:02;10.93;;;2.97;;
25913;SDS011;13718;50.922;5.346;2023-08-07T05:52:27;11.68;;;2.85;;
25913;SDS011;13718;50.922;5.346;2023-08-07T05:54:53;15.05;;;2.70;;
25913;SDS011;13718;50.922;5.346;2023-08-07T05:57:19;11.90;;;2.80;;
25913;SDS011;13718;50.922;5.346;2023-08-07T05:59:44;10.75;;;2.58;;
25913;SDS011;13718;50.922;5.346;2023-08-07T06:02:10;11.25;;;2.67;;
25913;SDS011;13718;50.922;5.346;2023-08-07T06:04:36;13.05;;;3.40;;
25913;SDS011;13718;50.922;5.346;2023-08-07T06:07:03;10.50;;;2.78;;
25913;SDS011;13718;50.922;5.346;2023-08-07T06:09:29;12.00;;;2.92;;
25913;SDS011;13718;50.922;5.346;2023-08-07T06:11:54;10.70;;;2.92;;
25913;SDS011;13718;50.922;5.346;2023-08-07T06:14:20;12.40;;;2.78;;
25913;SDS011;13718;50.922;5.346;2023-08-07T06:16:45;12.95;;;2.55;;
25913;SDS011;13718;50.922;5.346;2023-08-07T06:19:11;9.70;;;2.28;;
25913;SDS011;13718;50.922;5.346;2023-08-07T06:21:36;13.60;;;2.88;;
25913;SDS011;13718;50.922;5.346;2023-08-07T06:24:02;9.32;;;2.85;;
25913;SDS011;13718;50.922;5.346;2023-08-07T06:26:28;15.07;;;2.90;;
25913;SDS011;13718;50.922;5.346;2023-08-07T06:28:53;8.07;;;2.95;;
25913;SDS011;13718;50.922;5.346;2023-08-07T06:31:19;10.32;;;2.47;;
25913;SDS011;13718;50.922;5.346;2023-08-07T06:33:44;14.32;;;3.55;;
25913;SDS011;13718;50.922;5.346;2023-08-07T06:36:10;8.77;;;2.83;;
25913;SDS011;13718;50.922;5.346;2023-08-07T06:38:35;12.55;;;2.92;;
25913;SDS011;13718;50.922;5.346;2023-08-07T06:41:01;13.00;;;2.70;;
25913;SDS011;13718;50.922;5.346;2023-08-07T06:43:27;13.07;;;3.00;;
25913;SDS011;13718;50.922;5.346;2023-08-07T06:45:53;8.63;;;2.38;;
25913;SDS011;13718;50.922;5.346;2023-08-07T06:48:20;10.25;;;3.20;;
25913;SDS011;13718;50.922;5.346;2023-08-07T06:50:46;10.02;;;2.50;;
25913;SDS011;13718;50.922;5.346;2023-08-07T06:53:15;10.82;;;3.00;;
25913;SDS011;13718;50.922;5.346;2023-08-07T06:55:41;9.15;;;2.88;;
25913;SDS011;13718;50.922;5.346;2023-08-07T06:58:08;11.85;;;2.75;;
25913;SDS011;13718;50.922;5.346;2023-08-07T07:00:34;7.53;;;2.08;;
25913;SDS011;13718;50.922;5.346;2023-08-07T07:03:00;11.70;;;2.30;;
25913;SDS011;13718;50.922;5.346;2023-08-07T07:05:26;7.88;;;2.70;;
25913;SDS011;13718;50.922;5.346;2023-08-07T07:07:52;9.57;;;2.40;;
25913;SDS011;13718;50.922;5.346;2023-08-07T07:10:17;16.80;;;3.47;;
25913;SDS011;13718;50.922;5.346;2023-08-07T07:12:43;10.18;;;2.67;;
25913;SDS011;13718;50.922;5.346;2023-08-07T07:15:09;7.10;;;2.40;;
25913;SDS011;13718;50.922;5.346;2023-08-07T07:17:34;9.75;;;2.90;;
25913;SDS011;13718;50.922;5.346;2023-08-07T07:20:00;14.60;;;2.85;;
25913;SDS011;13718;50.922;5.346;2023-08-07T07:22:25;6.38;;;2.33;;
25913;SDS011;13718;50.922;5.346;2023-08-07T07:24:51;9.50;;;2.50;;
25913;SDS011;13718;50.922;5.346;2023-08-07T07:27:17;7.22;;;2.40;;
25913;SDS011;13718;50.922;5.346;2023-08-07T07:29:42;11.27;;;2.67;;
25913;SDS011;13718;50.922;5.346;2023-08-07T07:32:08;16.83;;;2.50;;
25913;SDS011;13718;50.922;5.346;2023-08-07T07:34:33;16.30;;;2.35;;
25913;SDS011;13718;50.922;5.346;2023-08-07T07:36:59;7.85;;;2.28;;
25913;SDS011;13718;50.922;5.346;2023-08-07T07:39:24;11.32;;;2.65;;
25913;SDS011;13718;50.922;5.346;2023-08-07T07:41:50;12.27;;;2.42;;
25913;SDS011;13718;50.922;5.346;2023-08-07T07:44:15;10.27;;;2.85;;
25913;SDS011;13718;50.922;5.346;2023-08-07T07:46:41;11.43;;;2.92;;
25913;SDS011;13718;50.922;5.346;2023-08-07T07:49:07;9.82;;;1.98;;
25913;SDS011;13718;50.922;5.346;2023-08-07T07:51:32;10.50;;;2.13;;
25913;SDS011;13718;50.922;5.346;2023-08-07T07:54:00;13.00;;;2.40;;
25913;SDS011;13718;50.922;5.346;2023-08-07T07:56:25;7.47;;;2.05;;
25913;SDS011;13718;50.922;5.346;2023-08-07T07:58:51;8.68;;;2.30;;
25913;SDS011;13718;50.922;5.346;2023-08-07T08:01:17;9.60;;;2.55;;
25913;SDS011;13718;50.922;5.346;2023-08-07T08:03:43;11.10;;;2.33;;
25913;SDS011;13718;50.922;5.346;2023-08-07T08:06:08;8.90;;;2.28;;
25913;SDS011;13718;50.922;5.346;2023-08-07T08:08:36;8.32;;;2.47;;
25913;SDS011;13718;50.922;5.346;2023-08-07T08:11:01;7.80;;;2.60;;
25913;SDS011;13718;50.922;5.346;2023-08-07T08:13:27;7.38;;;2.08;;
25913;SDS011;13718;50.922;5.346;2023-08-07T08:15:52;8.43;;;2.33;;
25913;SDS011;13718;50.922;5.346;2023-08-07T08:18:18;7.70;;;2.15;;
25913;SDS011;13718;50.922;5.346;2023-08-07T08:20:43;7.85;;;2.72;;
25913;SDS011;13718;50.922;5.346;2023-08-07T08:23:09;11.75;;;2.20;;
25913;SDS011;13718;50.922;5.346;2023-08-07T08:25:34;8.60;;;2.33;;
25913;SDS011;13718;50.922;5.346;2023-08-07T08:28:00;10.48;;;2.95;;
25913;SDS011;13718;50.922;5.346;2023-08-07T08:30:26;11.13;;;2.80;;
25913;SDS011;13718;50.922;5.346;2023-08-07T08:32:52;13.50;;;2.67;;
25913;SDS011;13718;50.922;5.346;2023-08-07T08:35:18;7.43;;;2.22;;
25913;SDS011;13718;50.922;5.346;2023-08-07T08:37:43;9.38;;;2.30;;
25913;SDS011;13718;50.922;5.346;2023-08-07T08:40:09;10.98;;;2.22;;
25913;SDS011;13718;50.922;5.346;2023-08-07T08:42:38;8.32;;;2.22;;
25913;SDS011;13718;50.922;5.346;2023-08-07T08:45:06;11.68;;;2.60;;
25913;SDS011;13718;50.922;5.346;2023-08-07T08:47:35;7.05;;;2.40;;
25913;SDS011;13718;50.922;5.346;2023-08-07T08:50:03;6.10;;;1.90;;
25913;SDS011;13718;50.922;5.346;2023-08-07T08:52:35;7.28;;;2.30;;
25913;SDS011;13718;50.922;5.346;2023-08-07T08:55:03;9.70;;;2.13;;
25913;SDS011;13718;50.922;5.346;2023-08-07T08:57:29;8.55;;;2.67;;
25913;SDS011;13718;50.922;5.346;2023-08-07T08:59:55;7.75;;;2.08;;
25913;SDS011;13718;50.922;5.346;2023-08-07T09:02:22;9.13;;;2.28;;
25913;SDS011;13718;50.922;5.346;2023-08-07T09:04:47;8.63;;;2.30;;
25913;SDS011;13718;50.922;5.346;2023-08-07T09:07:14;7.82;;;1.92;;
25913;SDS011;13718;50.922;5.346;2023-08-07T09:09:41;8.75;;;2.55;;
25913;SDS011;13718;50.922;5.346;2023-08-07T09:12:10;7.45;;;2.38;;
25913;SDS011;13718;50.922;5.346;2023-08-07T09:14:41;9.38;;;2.33;;
25913;SDS011;13718;50.922;5.346;2023-08-07T09:17:10;10.45;;;2.50;;
25913;SDS011;13718;50.922;5.346;2023-08-07T09:19:38;7.35;;;2.53;;
25913;SDS011;13718;50.922;5.346;2023-08-07T09:22:04;10.30;;;2.60;;
25913;SDS011;13718;50.922;5.346;2023-08-07T09:24:31;9.27;;;2.47;;
25913;SDS011;13718;50.922;5.346;2023-08-07T09:26:57;9.43;;;2.92;;
25913;SDS011;13718;50.922;5.346;2023-08-07T09:29:23;10.38;;;2.65;;
25913;SDS011;13718;50.922;5.346;2023-08-07T09:31:49;7.45;;;2.20;;
25913;SDS011;13718;50.922;5.346;2023-08-07T09:34:14;12.20;;;2.53;;
25913;SDS011;13718;50.922;5.346;2023-08-07T09:36:45;7.13;;;2.50;;
25913;SDS011;13718;50.922;5.346;2023-08-07T09:39:10;8.38;;;2.35;;
25913;SDS011;13718;50.922;5.346;2023-08-07T09:41:36;10.05;;;2.70;;
25913;SDS011;13718;50.922;5.346;2023-08-07T09:44:07;11.00;;;2.33;;
25913;SDS011;13718;50.922;5.346;2023-08-07T09:46:42;9.02;;;2.65;;
25913;SDS011;13718;50.922;5.346;2023-08-07T09:49:08;7.65;;;2.30;;
25913;SDS011;13718;50.922;5.346;2023-08-07T09:51:44;7.45;;;2.70;;
25913;SDS011;13718;50.922;5.346;2023-08-07T09:54:10;7.22;;;2.85;;
25913;SDS011;13718;50.922;5.346;2023-08-07T09:56:36;9.15;;;2.22;;
25913;SDS011;13718;50.922;5.346;2023-08-07T09:59:03;8.38;;;2.72;;
25913;SDS011;13718;50.922;5.346;2023-08-07T10:01:29;10.55;;;2.58;;
25913;SDS011;13718;50.922;5.346;2023-08-07T10:03:55;5.80;;;2.33;;
25913;SDS011;13718;50.922;5.346;2023-08-07T10:06:22;8.40;;;2.80;;
25913;SDS011;13718;50.922;5.346;2023-08-07T10:08:49;9.50;;;2.50;;
25913;SDS011;13718;50.922;5.346;2023-08-07T10:11:16;11.50;;;3.05;;
25913;SDS011;13718;50.922;5.346;2023-08-07T10:13:42;9.65;;;2.47;;
25913;SDS011;13718;50.922;5.346;2023-08-07T10:16:08;8.55;;;2.60;;
25913;SDS011;13718;50.922;5.346;2023-08-07T10:18:34;10.95;;;2.78;;
25913;SDS011;13718;50.922;5.346;2023-08-07T10:21:01;7.13;;;2.28;;
25913;SDS011;13718;50.922;5.346;2023-08-07T10:23:27;8.40;;;2.45;;
25913;SDS011;13718;50.922;5.346;2023-08-07T10:25:53;9.60;;;2.65;;
25913;SDS011;13718;50.922;5.346;2023-08-07T10:28:20;8.80;;;2.15;;
25913;SDS011;13718;50.922;5.346;2023-08-07T10:30:48;7.60;;;2.60;;
25913;SDS011;13718;50.922;5.346;2023-08-07T10:33:15;9.90;;;2.55;;
25913;SDS011;13718;50.922;5.346;2023-08-07T10:35:46;8.63;;;2.30;;
25913;SDS011;13718;50.922;5.346;2023-08-07T10:38:17;9.65;;;2.53;;
25913;SDS011;13718;50.922;5.346;2023-08-07T10:43:42;6.00;;;2.00;;
25913;SDS011;13718;50.922;5.346;2023-08-07T10:46:10;7.22;;;2.13;;
25913;SDS011;13718;50.922;5.346;2023-08-07T10:48:39;5.57;;;1.95;;
25913;SDS011;13718;50.922;5.346;2023-08-07T10:51:09;6.85;;;1.95;;
25913;SDS011;13718;50.922;5.346;2023-08-07T10:53:41;8.18;;;2.35;;
25913;SDS011;13718;50.922;5.346;2023-08-07T10:56:30;7.07;;;2.38;;
25913;SDS011;13718;50.922;5.346;2023-08-07T10:58:57;8.82;;;2.28;;
25913;SDS011;13718;50.922;5.346;2023-08-07T11:04:07;6.88;;;2.35;;
25913;SDS011;13718;50.922;5.346;2023-08-07T11:06:35;7.07;;;2.05;;
25913;SDS011;13718;50.922;5.346;2023-08-07T11:09:02;7.75;;;1.98;;
25913;SDS011;13718;50.922;5.346;2023-08-07T11:11:32;7.55;;;2.30;;
25913;SDS011;13718;50.922;5.346;2023-08-07T11:14:14;9.25;;;2.25;;
25913;SDS011;13718;50.922;5.346;2023-08-07T11:16:41;10.05;;;2.30;;
25913;SDS011;13718;50.922;5.346;2023-08-07T11:19:08;8.30;;;2.30;;
25913;SDS011;13718;50.922;5.346;2023-08-07T11:21:34;7.25;;;2.33;;
25913;SDS011;13718;50.922;5.346;2023-08-07T11:24:01;7.93;;;2.05;;
25913;SDS011;13718;50.922;5.346;2023-08-07T11:26:26;7.50;;;2.15;;
25913;SDS011;13718;50.922;5.346;2023-08-07T11:28:53;9.30;;;2.80;;
25913;SDS011;13718;50.922;5.346;2023-08-07T11:31:19;10.85;;;2.08;;
25913;SDS011;13718;50.922;5.346;2023-08-07T11:33:45;5.75;;;2.30;;
25913;SDS011;13718;50.922;5.346;2023-08-07T11:36:11;6.75;;;2.30;;
25913;SDS011;13718;50.922;5.346;2023-08-07T11:38:38;8.27;;;2.15;;
25913;SDS011;13718;50.922;5.346;2023-08-07T11:41:09;7.35;;;1.90;;
25913;SDS011;13718;50.922;5.346;2023-08-07T11:43:39;5.93;;;1.90;;
25913;SDS011;13718;50.922;5.346;2023-08-07T11:46:10;8.20;;;2.25;;
25913;SDS011;13718;50.922;5.346;2023-08-07T11:48:38;7.05;;;2.15;;
25913;SDS011;13718;50.922;5.346;2023-08-07T11:51:05;6.45;;;2.00;;
25913;SDS011;13718;50.922;5.346;2023-08-07T11:53:32;5.07;;;1.70;;
25913;SDS011;13718;50.922;5.346;2023-08-07T11:56:00;4.70;;;1.70;;
25913;SDS011;13718;50.922;5.346;2023-08-07T11:58:27;5.88;;;1.90;;
25913;SDS011;13718;50.922;5.346;2023-08-07T12:00:59;5.63;;;1.95;;
25913;SDS011;13718;50.922;5.346;2023-08-07T12:03:30;8.38;;;1.88;;
25913;SDS011;13718;50.922;5.346;2023-08-07T12:06:02;7.07;;;1.77;;
25913;SDS011;13718;50.922;5.346;2023-08-07T12:08:32;6.22;;;1.80;;
25913;SDS011;13718;50.922;5.346;2023-08-07T12:11:00;5.85;;;2.10;;
25913;SDS011;13718;50.922;5.346;2023-08-07T12:13:28;4.85;;;1.70;;
25913;SDS011;13718;50.922;5.346;2023-08-07T12:15:54;5.32;;;1.60;;
25913;SDS011;13718;50.922;5.346;2023-08-07T12:18:21;5.45;;;1.50;;
25913;SDS011;13718;50.922;5.346;2023-08-07T12:20:50;4.82;;;1.50;;
25913;SDS011;13718;50.922;5.346;2023-08-07T12:23:16;6.38;;;1.73;;
25913;SDS011;13718;50.922;5.346;2023-08-07T12:25:43;5.72;;;1.55;;
25913;SDS011;13718;50.922;5.346;2023-08-07T12:28:09;4.18;;;1.50;;
25913;SDS011;13718;50.922;5.346;2023-08-07T12:30:36;2.92;;;1.60;;
25913;SDS011;13718;50.922;5.346;2023-08-07T12:33:02;4.22;;;1.52;;
25913;SDS011;13718;50.922;5.346;2023-08-07T12:35:29;3.35;;;1.65;;
25913;SDS011;13718;50.922;5.346;2023-08-07T12:37:55;3.65;;;1.48;;
25913;SDS011;13718;50.922;5.346;2023-08-07T12:40:21;3.30;;;1.42;;
25913;SDS011;13718;50.922;5.346;2023-08-07T12:42:48;3.83;;;1.60;;
25913;SDS011;13718;50.922;5.346;2023-08-07T12:45:14;4.35;;;1.58;;
25913;SDS011;13718;50.922;5.346;2023-08-07T12:47:41;3.78;;;1.70;;
25913;SDS011;13718;50.922;5.346;2023-08-07T12:50:07;3.50;;;1.50;;
25913;SDS011;13718;50.922;5.346;2023-08-07T12:52:34;4.30;;;1.27;;
25913;SDS011;13718;50.922;5.346;2023-08-07T12:54:59;4.15;;;1.65;;
25913;SDS011;13718;50.922;5.346;2023-08-07T12:57:25;4.70;;;1.40;;
25913;SDS011;13718;50.922;5.346;2023-08-07T12:59:52;3.53;;;1.35;;
25913;SDS011;13718;50.922;5.346;2023-08-07T13:02:18;3.22;;;1.45;;
25913;SDS011;13718;50.922;5.346;2023-08-07T13:04:43;4.20;;;1.50;;
25913;SDS011;13718;50.922;5.346;2023-08-07T13:07:09;3.88;;;1.20;;
25913;SDS011;13718;50.922;5.346;2023-08-07T13:09:34;5.88;;;1.70;;
25913;SDS011;13718;50.922;5.346;2023-08-07T13:12:00;7.18;;;1.45;;
25913;SDS011;13718;50.922;5.346;2023-08-07T13:14:26;4.93;;;1.60;;
25913;SDS011;13718;50.922;5.346;2023-08-07T13:16:51;3.90;;;1.48;;
25913;SDS011;13718;50.922;5.346;2023-08-07T13:19:17;2.22;;;1.20;;
25913;SDS011;13718;50.922;5.346;2023-08-07T13:21:43;3.72;;;1.35;;
25913;SDS011;13718;50.922;5.346;2023-08-07T13:24:08;2.80;;;1.20;;
25913;SDS011;13718;50.922;5.346;2023-08-07T13:26:34;4.70;;;1.30;;
25913;SDS011;13718;50.922;5.346;2023-08-07T13:28:59;3.35;;;1.27;;
25913;SDS011;13718;50.922;5.346;2023-08-07T13:31:25;2.13;;;1.25;;
25913;SDS011;13718;50.922;5.346;2023-08-07T13:33:50;4.88;;;1.35;;
25913;SDS011;13718;50.922;5.346;2023-08-07T13:36:16;3.80;;;1.27;;
25913;SDS011;13718;50.922;5.346;2023-08-07T13:38:41;3.28;;;1.45;;
25913;SDS011;13718;50.922;5.346;2023-08-07T13:41:07;5.50;;;1.50;;
25913;SDS011;13718;50.922;5.346;2023-08-07T13:43:33;3.58;;;1.30;;
25913;SDS011;13718;50.922;5.346;2023-08-07T13:45:58;3.95;;;1.30;;
25913;SDS011;13718;50.922;5.346;2023-08-07T13:48:24;4.45;;;1.38;;
25913;SDS011;13718;50.922;5.346;2023-08-07T13:50:52;5.93;;;1.40;;
25913;SDS011;13718;50.922;5.346;2023-08-07T13:53:17;4.38;;;1.30;;
25913;SDS011;13718;50.922;5.346;2023-08-07T13:55:44;2.50;;;1.30;;
25913;SDS011;13718;50.922;5.346;2023-08-07T13:58:11;3.42;;;1.48;;
25913;SDS011;13718;50.922;5.346;2023-08-07T14:00:40;6.15;;;1.40;;
25913;SDS011;13718;50.922;5.346;2023-08-07T14:03:05;3.83;;;1.23;;
25913;SDS011;13718;50.922;5.346;2023-08-07T14:05:31;3.85;;;1.25;;
25913;SDS011;13718;50.922;5.346;2023-08-07T14:07:57;6.97;;;1.63;;
25913;SDS011;13718;50.922;5.346;2023-08-07T14:10:23;3.55;;;1.30;;
25913;SDS011;13718;50.922;5.346;2023-08-07T14:12:48;1.95;;;1.20;;
25913;SDS011;13718;50.922;5.346;2023-08-07T14:15:14;5.40;;;1.30;;
25913;SDS011;13718;50.922;5.346;2023-08-07T14:17:39;4.70;;;1.25;;
25913;SDS011;13718;50.922;5.346;2023-08-07T14:20:05;2.17;;;1.10;;
25913;SDS011;13718;50.922;5.346;2023-08-07T14:22:31;3.03;;;1.30;;
25913;SDS011;13718;50.922;5.346;2023-08-07T14:24:57;3.15;;;1.38;;
25913;SDS011;13718;50.922;5.346;2023-08-07T14:27:23;4.30;;;1.35;;
25913;SDS011;13718;50.922;5.346;2023-08-07T14:29:48;3.17;;;1.45;;
25913;SDS011;13718;50.922;5.346;2023-08-07T14:32:14;3.28;;;1.30;;
25913;SDS011;13718;50.922;5.346;2023-08-07T14:34:39;3.50;;;1.50;;
25913;SDS011;13718;50.922;5.346;2023-08-07T14:37:05;4.15;;;1.45;;
25913;SDS011;13718;50.922;5.346;2023-08-07T14:39:31;3.80;;;1.20;;
25913;SDS011;13718;50.922;5.346;2023-08-07T14:41:57;2.60;;;1.50;;
25913;SDS011;13718;50.922;5.346;2023-08-07T14:44:22;3.33;;;1.60;;
25913;SDS011;13718;50.922;5.346;2023-08-07T14:46:48;5.35;;;1.60;;
25913;SDS011;13718;50.922;5.346;2023-08-07T14:49:13;3.92;;;1.40;;
25913;SDS011;13718;50.922;5.346;2023-08-07T14:51:39;3.83;;;1.60;;
25913;SDS011;13718;50.922;5.346;2023-08-07T14:54:04;5.28;;;1.38;;